UUMO METAR and TAF | Updated Today

UUMO METAR

Ostafyevo International Airport

Observation time: 10 min. ago

UUMO 080630Z 36005MPS 9999 OVC010 M05/M07 Q1017 R25/710342 NOSIG RMK QFE747/0997

Need help? Read our tutorial on how to read METARs or read the parsed version below.

Ostafyevo International Airport (UUMO) METAR

  • Weather conditions on Wed, 08 Dec 2021 06:30:00 +0000 (10 min. ago):
  • Present conditions: Dry
  • Clouds: Overcast sky at 305 meters
  • Visibility: Greater than 10 km
  • Wind: 360 degrees at 5 knots
  • Temperature: -5 celsius
  • Dew point: -7 celsius
  • Pressure: 1017 millibars
  • Remarks: QFE747/0997


Useful to know...

UUMO TAF

Ostafyevo International Airport

TAF UUMO 080449Z 0806/0815 35003MPS 6000 BKN009
Observation time: 1:51 hr. ago
Need help? Read our tutorial on how to read TAFs or read the parsed version below.

Parsed version of TAF for Ostafyevo International Airport (UUMO)

  • From 08 December at 06:00 UTC, to day 08 of the month at 15:00 UTC
  • Clouds: Broken sky at 274 meters
  • Visibility: 6000 meters
  • Wind: 350 degrees at 3